Welcome to our Virtual Airline
Sign-in:

Flight MFC37961

  • Submitted By: Karl-Heinz Klotz
  • Departure Airport: Kodiak (PADQ)
  • Arrival Airport: Port Williams SPB (KPR)
  • Aircraft: BELL 412EP (N4122MM)
  • Flight Time: 00.29.47
  • Date Submitted: 19/05/13
  • Route: STOP-OVER AT KITOI BAY SPB (KKB)
  • Status: Accepted
Flight Details
Gross Revenue:
(3 load / $ 48.00 per unit
$ 144.00
Fuel Cost:
(22.226 fuel used @ 5.1 / unit)
$ 113.35

Additional Log Information:

View Log

FS[16:35] ----- Flight Opened -----
FS[16:35] Cigar Box - 1.1.4.0
FS[16:35] FS: Prepar3D V4
FS[16:35] FSUIPC: v5,15
FS[16:35] Flight Number: MFC37961
FS[16:35] FS Aircraft: C185F SKYWAGON AMPHIBIAN
FS[16:35] FS Model: C185
FS[16:35] FS Type: Cessna
FS[16:35] Departure: PADQ
FS[16:35] Arrival: KPR
FS[16:35] Flight Level: 4500
FS[16:35] Flight Type: H
FS[16:35] Passengers: 3
FS[16:35] FOB: 158 lbs
FS[16:35] Gate: n/a
FS[16:35] NOTE: Parking Brake Ignored
FS[16:35] Crash Detection: Disabled
FS[16:35] Engines: 1 Piston
FS[16:35] NOTE: Boarding has started
FS[16:35] Autopilot: Engaged
FS[16:35] AGL: 3 ft
FS[16:35] AMSL: 75 ft
FS[16:35] Engine 1: Started
FS[16:35] Light Data: Navigation ON
FS[16:35] Light Data: Beacon ON
FS[16:35] Light Data: Strobe lights ON
FS[16:35] Main Door Closed
FS[16:35] COM1: 121.05
FS[16:35] COM2: 127.80
FS[16:35] Transponder: 1200
FS[16:35] NAV1: 115.90
FS[16:35] NAV2: 110.60
FS[16:35] ADF1: 396.0
FS[16:35] ADF2: 240.0
FS[16:35] Navigation Mode: NAV
FS[16:35] NOTE: Taxi started
FS[16:36] NOTE: ----- TAKE OFF -----
FS[16:36] GS: 95 knots
FS[16:36] TAS: 95 knots
FS[16:36] IAS: 96 knots
FS[16:36] VS: 4 fpm
FS[16:36] FOB: 157 lbs
FS[16:36] Heading: 269°
FS[16:36] Pitch: 2°
FS[16:36] Bank: 0°
FS[16:36] Aircraft Weight: 2601,79 lbs
FS[16:36] Nearest Airport: PADQ
FS[16:36] Distance: 0,39 miles
FS[16:36] Runway: ???
FS[16:36] Ground Surface: Asphalt
FS[16:36] Ground Condition: Normal
FS[16:36] NOTE: Weather Report
FS[16:36] Wind Heading: 345°
FS[16:36] Wind Speed: 0 knots
FS[16:36] OAT: 14° C
FS[16:36] TAT: 16° C
FS[16:36] Precipitation: None
FS[16:36] Dew Point: 4° C
FS[16:36] Visibility: 62 miles
FS[16:36] METAR: PADQ 131434Z AUTO 12010KT 10SM FEW007 BKN012 OVC021 07/04 A2990 RMK AO2 RAB1356E30 P0000 T00670044 TSNO $
FS[16:36] NOTE: Climb started
FS[16:36] Landing Gear: Retracted
FS[16:36] GS: 99 knots
FS[16:36] TAS: 101 knots
FS[16:36] IAS: 101 knots
FS[16:36] VS: 877 fpm
FS[16:36] AGL: 42 ft
FS[16:36] AMSL: 114 ft
FS[16:36] View Mode: Virtual Cockpit
FS[16:36] Autopilot: Disengaged
FS[16:36] AGL: 574 ft
FS[16:36] AMSL: 639 ft
FS[16:36] Autopilot: Engaged
FS[16:36] AGL: 591 ft
FS[16:36] AMSL: 656 ft
FS[16:38] FS: Paused
FS[16:38] FS: Unpaused
FS[16:48] Autopilot: Disengaged
FS[16:48] AGL: 984 ft
FS[16:48] AMSL: 984 ft
FS[16:48] Flaps: Position 1
FS[16:48] GS: 99 knots
FS[16:48] TAS: 100 knots
FS[16:48] IAS: 98 knots
FS[16:48] VS: -474 fpm
FS[16:49] Flaps: Position 2
FS[16:49] GS: 73 knots
FS[16:49] TAS: 73 knots
FS[16:49] IAS: 73 knots
FS[16:49] VS: -505 fpm
FS[16:50] Flaps: Position 3
FS[16:50] GS: 68 knots
FS[16:50] TAS: 68 knots
FS[16:50] IAS: 68 knots
FS[16:50] VS: -432 fpm
FS[16:50] NOTE: ----- LANDED -----
FS[16:50] Landing Rate: -85,35 fpm
FS[16:50] GS: 56 knots
FS[16:50] TAS: 56 knots
FS[16:50] IAS: 56 knots
FS[16:50] VS: -84 fpm
FS[16:50] FOB: 127 lbs
FS[16:50] Heading: 291°
FS[16:50] Pitch: 3°
FS[16:50] Bank: 0°
FS[16:50] Aircraft Weight: 2572,64 lbs
FS[16:50] Nearest Airport: KKB
FS[16:50] Distance: 0,84 miles
FS[16:50] Runway: ???
FS[16:50] Ground Surface: Water
FS[16:50] Ground Condition: Normal
FS[16:50] NOTE: Weather Report
FS[16:50] Wind Heading: 345°
FS[16:50] Wind Speed: 0 knots
FS[16:50] OAT: 14° C
FS[16:50] TAT: 15° C
FS[16:50] Precipitation: None
FS[16:50] Dew Point: 4° C
FS[16:50] Visibility: 62 miles
FS[16:50] METAR: KPRB 131448Z AUTO 00000KT 4SM BR OVC002 11/10 A3004 RMK AO2KPRC 131353Z 16003KT 10SM CLR 11/07 A3011 RMK AO2 SLP144 T01110067KPRG 131435Z AUTO 30008G14KT 10SM SCT016 SCT022 BKN050 12/08 A2996 RMK AO2 T01230084KPRN 131356Z AUTO 01010KT 10SM CLR 21/14 A2991 RMK AO2 SLP124 T02110139KPRO 131435Z AUTO 00000KT 10SM CLR 11/10 A3002 RMK AO2 T01090098KPRS 131435Z AUTO 05005KT 10SM SCT036 BKN050 OVC065 20/13 A3000 RMK AO2 LTG DSNT N T02030125KPRX 131356Z AUTO 25005KT 10SM CLR 19/16 A3000 RMK AO2 SLP168 T01940161
FS[16:50] View Mode: Virtual Cockpit
FS[16:51] Flaps: Position 1
FS[16:51] NOTE: Taxi started
FS[16:51] Flaps: Position 0
FS[16:51] View Mode: Virtual Cockpit
FS[16:51] Autopilot: Engaged
FS[16:51] AGL: 306 ft
FS[16:51] AMSL: 328 ft
FS[16:51] Autopilot: Disengaged
FS[16:51] AGL: 341 ft
FS[16:51] AMSL: 741 ft
FS[16:51] Autopilot: Engaged
FS[16:51] AGL: 321 ft
FS[16:51] AMSL: 770 ft
FS[16:56] Recovery: Flight Saved
FS[16:59] Flaps: Position 1
FS[16:59] GS: 87 knots
FS[16:59] TAS: 88 knots
FS[16:59] IAS: 86 knots
FS[16:59] VS: 85 fpm
FS[17:01] Flaps: Position 2
FS[17:01] GS: 79 knots
FS[17:01] TAS: 81 knots
FS[17:01] IAS: 81 knots
FS[17:01] VS: -790 fpm
FS[17:01] Flaps: Position 3
FS[17:01] GS: 71 knots
FS[17:01] TAS: 73 knots
FS[17:01] IAS: 73 knots
FS[17:01] VS: -649 fpm
FS[17:02] Flaps: Position 4
FS[17:02] GS: 64 knots
FS[17:02] TAS: 64 knots
FS[17:02] IAS: 64 knots
FS[17:02] VS: -582 fpm
FS[17:03] NOTE: ----- LANDED -----
FS[17:03] Landing Rate: -21,53 fpm
FS[17:03] GS: 54 knots
FS[17:03] TAS: 55 knots
FS[17:03] IAS: 55 knots
FS[17:03] VS: -21 fpm
FS[17:03] FOB: 108 lbs
FS[17:03] Heading: 287°
FS[17:03] Pitch: 1°
FS[17:03] Bank: 0°
FS[17:03] Aircraft Weight: 2553,54 lbs
FS[17:03] Nearest Airport: KPR
FS[17:03] Distance: 0,86 miles
FS[17:03] Runway: ???
FS[17:03] Ground Surface: Water
FS[17:03] Ground Condition: Normal
FS[17:03] NOTE: Weather Report
FS[17:03] Wind Heading: 345°
FS[17:03] Wind Speed: 0 knots
FS[17:03] OAT: 14° C
FS[17:03] TAT: 15° C
FS[17:03] Precipitation: None
FS[17:03] Dew Point: 4° C
FS[17:03] Visibility: 62 miles
FS[17:03] METAR: KPRB 131448Z AUTO 00000KT 4SM BR OVC002 11/10 A3004 RMK AO2KPRC 131353Z 16003KT 10SM CLR 11/07 A3011 RMK AO2 SLP144 T01110067KPRG 131435Z AUTO 30008G14KT 10SM SCT016 SCT022 BKN050 12/08 A2996 RMK AO2 T01230084KPRN 131356Z AUTO 01010KT 10SM CLR 21/14 A2991 RMK AO2 SLP124 T02110139KPRO 131435Z AUTO 00000KT 10SM CLR 11/10 A3002 RMK AO2 T01090098KPRS 131435Z AUTO 05005KT 10SM SCT036 BKN050 OVC065 20/13 A3000 RMK AO2 LTG DSNT N T02030125KPRX 131356Z AUTO 25005KT 10SM CLR 19/16 A3000 RMK AO2 SLP168 T01940161
FS[17:03] View Mode: Virtual Cockpit
FS[17:05] Gate: n/a
FS[17:05] NOTE: Flight Completed
FS[17:05] FS Aircraft: C185F SKYWAGON AMPHIBIAN
FS[17:05] FS Model: C185
FS[17:05] FS Type: Cessna
FS[17:05] FOB: 108 lbs
FS[17:05] Fuel Used: 49 lbs
FS[17:05] Flight Time: 00:29:46
FS[17:05] Flight Time (Dawn): 00:00:00
FS[17:05] Flight Time (Day): 00:29:46
FS[17:05] Flight Time (Dusk): 00:00:00
FS[17:05] Flight Time (Night): 00:00:00
FS[17:05] Total Landings: 2
FS[17:05] MaxSim Rate: 1x
FS[17:05] Cigar Box - 1.1.4.0
FS[17:05] ----- Flight Closed -----

Route Map